sensor_id;sensor_type;location;lat;lon;timestamp;pressure;altitude;pressure_sealevel;temperature;humidity
81155;BME280;70631;50.436;7.826;2023-11-19T00:01:22;98805.41;;;10.00;87.88
81155;BME280;70631;50.436;7.826;2023-11-19T00:03:48;98807.38;;;9.98;87.80
81155;BME280;70631;50.436;7.826;2023-11-19T00:06:13;98799.66;;;9.95;87.85
81155;BME280;70631;50.436;7.826;2023-11-19T00:08:38;98806.66;;;9.96;87.86
81155;BME280;70631;50.436;7.826;2023-11-19T00:11:04;98806.41;;;9.99;87.83
81155;BME280;70631;50.436;7.826;2023-11-19T00:13:29;98800.25;;;9.98;87.61
81155;BME280;70631;50.436;7.826;2023-11-19T00:15:55;98817.72;;;10.01;87.69
81155;BME280;70631;50.436;7.826;2023-11-19T00:18:21;98809.44;;;10.04;87.71
81155;BME280;70631;50.436;7.826;2023-11-19T00:20:47;98798.66;;;10.05;87.35
81155;BME280;70631;50.436;7.826;2023-11-19T00:23:12;98795.81;;;10.07;87.37
81155;BME280;70631;50.436;7.826;2023-11-19T00:25:37;98796.50;;;10.09;87.82
81155;BME280;70631;50.436;7.826;2023-11-19T00:28:03;98794.22;;;10.14;87.63
81155;BME280;70631;50.436;7.826;2023-11-19T00:30:29;98798.56;;;10.15;87.50
81155;BME280;70631;50.436;7.826;2023-11-19T00:32:56;98780.63;;;10.17;87.39
81155;BME280;70631;50.436;7.826;2023-11-19T00:35:21;98772.47;;;10.19;87.42
81155;BME280;70631;50.436;7.826;2023-11-19T00:37:46;98771.41;;;10.21;87.41
81155;BME280;70631;50.436;7.826;2023-11-19T00:40:13;98762.56;;;10.21;87.25
81155;BME280;70631;50.436;7.826;2023-11-19T00:42:38;98763.25;;;10.23;87.60
81155;BME280;70631;50.436;7.826;2023-11-19T00:45:04;98758.09;;;10.21;87.64
81155;BME280;70631;50.436;7.826;2023-11-19T00:47:33;98730.47;;;10.22;87.43
81155;BME280;70631;50.436;7.826;2023-11-19T00:50:00;98735.78;;;10.22;87.66
81155;BME280;70631;50.436;7.826;2023-11-19T00:52:28;98738.16;;;10.25;87.65
81155;BME280;70631;50.436;7.826;2023-11-19T00:54:53;98747.66;;;10.28;87.61
81155;BME280;70631;50.436;7.826;2023-11-19T00:57:18;98746.50;;;10.30;87.60
81155;BME280;70631;50.436;7.826;2023-11-19T00:59:44;98758.84;;;10.31;87.13
81155;BME280;70631;50.436;7.826;2023-11-19T01:02:09;98751.38;;;10.35;86.98
81155;BME280;70631;50.436;7.826;2023-11-19T01:04:35;98730.75;;;10.37;87.41
81155;BME280;70631;50.436;7.826;2023-11-19T01:07:04;98728.31;;;10.44;86.82
81155;BME280;70631;50.436;7.826;2023-11-19T01:09:30;98740.66;;;10.45;86.60
81155;BME280;70631;50.436;7.826;2023-11-19T01:11:58;98729.16;;;10.44;87.16
81155;BME280;70631;50.436;7.826;2023-11-19T01:14:23;98731.50;;;10.47;87.09
81155;BME280;70631;50.436;7.826;2023-11-19T01:16:48;98728.00;;;10.47;87.08
81155;BME280;70631;50.436;7.826;2023-11-19T01:19:14;98728.69;;;10.49;86.94
81155;BME280;70631;50.436;7.826;2023-11-19T01:21:39;98725.72;;;10.52;87.16
81155;BME280;70631;50.436;7.826;2023-11-19T01:24:05;98715.59;;;10.55;87.18
81155;BME280;70631;50.436;7.826;2023-11-19T01:26:34;98710.78;;;10.59;86.83
81155;BME280;70631;50.436;7.826;2023-11-19T01:28:59;98703.47;;;10.61;86.97
81155;BME280;70631;50.436;7.826;2023-11-19T01:31:26;98705.13;;;10.62;87.07
81155;BME280;70631;50.436;7.826;2023-11-19T01:33:51;98719.16;;;10.64;86.43
81155;BME280;70631;50.436;7.826;2023-11-19T01:36:16;98715.78;;;10.62;86.79
81155;BME280;70631;50.436;7.826;2023-11-19T01:38:42;98725.16;;;10.66;86.76
81155;BME280;70631;50.436;7.826;2023-11-19T01:41:07;98734.84;;;10.67;86.95
81155;BME280;70631;50.436;7.826;2023-11-19T01:43:38;98731.03;;;10.69;86.57
81155;BME280;70631;50.436;7.826;2023-11-19T01:46:05;98732.53;;;10.72;86.76
81155;BME280;70631;50.436;7.826;2023-11-19T01:48:31;98725.53;;;10.71;86.67
81155;BME280;70631;50.436;7.826;2023-11-19T01:50:58;98721.72;;;10.74;86.78
81155;BME280;70631;50.436;7.826;2023-11-19T01:53:23;98710.38;;;10.71;87.09
81155;BME280;70631;50.436;7.826;2023-11-19T01:55:50;98696.59;;;10.76;87.10
81155;BME280;70631;50.436;7.826;2023-11-19T01:58:15;98696.06;;;10.73;86.85
81155;BME280;70631;50.436;7.826;2023-11-19T02:00:42;98700.91;;;10.77;86.96
81155;BME280;70631;50.436;7.826;2023-11-19T02:03:08;98690.56;;;10.74;86.85
81155;BME280;70631;50.436;7.826;2023-11-19T02:05:34;98684.56;;;10.72;86.87
81155;BME280;70631;50.436;7.826;2023-11-19T02:07:59;98682.59;;;10.74;86.93
81155;BME280;70631;50.436;7.826;2023-11-19T02:10:25;98687.91;;;10.74;87.11
81155;BME280;70631;50.436;7.826;2023-11-19T02:12:50;98680.75;;;10.75;87.43
81155;BME280;70631;50.436;7.826;2023-11-19T02:15:16;98668.94;;;10.77;87.46
81155;BME280;70631;50.436;7.826;2023-11-19T02:17:44;98668.25;;;10.75;86.99
81155;BME280;70631;50.436;7.826;2023-11-19T02:20:09;98677.25;;;10.74;87.34
81155;BME280;70631;50.436;7.826;2023-11-19T02:22:37;98672.75;;;10.75;87.56
81155;BME280;70631;50.436;7.826;2023-11-19T02:25:07;98673.06;;;10.71;87.17
81155;BME280;70631;50.436;7.826;2023-11-19T02:28:01;98681.56;;;10.67;87.36
81155;BME280;70631;50.436;7.826;2023-11-19T02:30:26;98684.56;;;10.72;87.64
81155;BME280;70631;50.436;7.826;2023-11-19T02:32:53;98684.72;;;10.70;87.36
81155;BME280;70631;50.436;7.826;2023-11-19T02:35:19;98685.41;;;10.73;87.35
81155;BME280;70631;50.436;7.826;2023-11-19T02:37:47;98690.25;;;10.77;87.64
81155;BME280;70631;50.436;7.826;2023-11-19T02:40:12;98687.28;;;10.80;87.55
81155;BME280;70631;50.436;7.826;2023-11-19T02:42:38;98669.63;;;10.79;87.42
81155;BME280;70631;50.436;7.826;2023-11-19T02:45:04;98662.84;;;10.85;87.36
81155;BME280;70631;50.436;7.826;2023-11-19T02:47:31;98653.03;;;10.85;87.08
81155;BME280;70631;50.436;7.826;2023-11-19T02:49:56;98663.81;;;10.84;87.26
81155;BME280;70631;50.436;7.826;2023-11-19T02:52:22;98656.53;;;10.86;87.61
81155;BME280;70631;50.436;7.826;2023-11-19T02:54:48;98666.03;;;10.88;87.37
81155;BME280;70631;50.436;7.826;2023-11-19T02:57:13;98674.53;;;10.92;87.19
81155;BME280;70631;50.436;7.826;2023-11-19T02:59:39;98666.53;;;10.92;87.01
81155;BME280;70631;50.436;7.826;2023-11-19T03:02:07;98656.03;;;10.90;87.31
81155;BME280;70631;50.436;7.826;2023-11-19T03:04:36;98653.38;;;10.90;87.58
81155;BME280;70631;50.436;7.826;2023-11-19T03:07:01;98651.53;;;10.91;87.38
81155;BME280;70631;50.436;7.826;2023-11-19T03:09:27;98640.56;;;10.94;87.48
81155;BME280;70631;50.436;7.826;2023-11-19T03:11:54;98659.72;;;10.97;87.38
81155;BME280;70631;50.436;7.826;2023-11-19T03:14:19;98656.75;;;11.00;87.06
81155;BME280;70631;50.436;7.826;2023-11-19T03:16:45;98654.22;;;10.99;87.27
81155;BME280;70631;50.436;7.826;2023-11-19T03:19:13;98656.75;;;11.00;87.40
81155;BME280;70631;50.436;7.826;2023-11-19T03:21:39;98661.75;;;11.03;87.54
81155;BME280;70631;50.436;7.826;2023-11-19T03:24:04;98665.09;;;11.06;87.30
81155;BME280;70631;50.436;7.826;2023-11-19T03:26:30;98657.09;;;11.06;87.19
81155;BME280;70631;50.436;7.826;2023-11-19T03:28:55;98667.09;;;11.03;87.39
81155;BME280;70631;50.436;7.826;2023-11-19T03:31:22;98660.63;;;11.06;87.29
81155;BME280;70631;50.436;7.826;2023-11-19T03:33:47;98649.97;;;11.06;87.46
81155;BME280;70631;50.436;7.826;2023-11-19T03:36:12;98630.59;;;11.04;87.06
81155;BME280;70631;50.436;7.826;2023-11-19T03:38:38;98642.63;;;11.08;87.40
81155;BME280;70631;50.436;7.826;2023-11-19T03:41:13;98639.44;;;11.05;87.32
81155;BME280;70631;50.436;7.826;2023-11-19T03:43:39;98638.75;;;11.02;87.31
81155;BME280;70631;50.436;7.826;2023-11-19T03:46:15;98631.75;;;11.01;87.36
81155;BME280;70631;50.436;7.826;2023-11-19T03:48:40;98638.59;;;11.04;87.01
81155;BME280;70631;50.436;7.826;2023-11-19T03:51:05;98644.91;;;11.03;87.25
81155;BME280;70631;50.436;7.826;2023-11-19T03:53:30;98642.41;;;11.01;87.01
81155;BME280;70631;50.436;7.826;2023-11-19T03:55:56;98651.09;;;11.03;87.14
81155;BME280;70631;50.436;7.826;2023-11-19T03:58:21;98651.75;;;11.06;87.01
81155;BME280;70631;50.436;7.826;2023-11-19T04:00:46;98642.78;;;11.07;87.25
81155;BME280;70631;50.436;7.826;2023-11-19T04:03:12;98635.31;;;11.10;87.23
81155;BME280;70631;50.436;7.826;2023-11-19T04:05:37;98632.31;;;11.13;87.26
81155;BME280;70631;50.436;7.826;2023-11-19T04:08:03;98623.00;;;11.17;87.08
81155;BME280;70631;50.436;7.826;2023-11-19T04:10:28;98620.00;;;11.20;86.99
81155;BME280;70631;50.436;7.826;2023-11-19T04:12:54;98623.34;;;11.22;86.65
81155;BME280;70631;50.436;7.826;2023-11-19T04:15:19;98617.16;;;11.22;86.57
81155;BME280;70631;50.436;7.826;2023-11-19T04:17:44;98631.19;;;11.24;86.78
81155;BME280;70631;50.436;7.826;2023-11-19T04:20:11;98623.53;;;11.29;86.75
81155;BME280;70631;50.436;7.826;2023-11-19T04:22:38;98622.22;;;11.33;86.88
81155;BME280;70631;50.436;7.826;2023-11-19T04:25:03;98633.56;;;11.35;86.33
81155;BME280;70631;50.436;7.826;2023-11-19T04:27:29;98630.72;;;11.37;86.56
81155;BME280;70631;50.436;7.826;2023-11-19T04:29:55;98642.22;;;11.37;86.62
81155;BME280;70631;50.436;7.826;2023-11-19T04:32:20;98626.22;;;11.37;86.42
81155;BME280;70631;50.436;7.826;2023-11-19T04:34:46;98623.72;;;11.36;86.35
81155;BME280;70631;50.436;7.826;2023-11-19T04:37:11;98617.88;;;11.32;86.27
81155;BME280;70631;50.436;7.826;2023-11-19T04:39:36;98619.34;;;11.26;86.50
81155;BME280;70631;50.436;7.826;2023-11-19T04:42:02;98621.16;;;11.18;86.32
81155;BME280;70631;50.436;7.826;2023-11-19T04:44:27;98624.66;;;11.10;86.43
81155;BME280;70631;50.436;7.826;2023-11-19T04:46:54;98622.75;;;11.02;86.48
81155;BME280;70631;50.436;7.826;2023-11-19T04:49:19;98624.41;;;10.95;86.41
81155;BME280;70631;50.436;7.826;2023-11-19T04:51:45;98630.06;;;10.92;86.50
81155;BME280;70631;50.436;7.826;2023-11-19T04:54:14;98624.38;;;10.87;86.71
81155;BME280;70631;50.436;7.826;2023-11-19T04:56:39;98635.50;;;10.83;86.59
81155;BME280;70631;50.436;7.826;2023-11-19T04:59:06;98632.97;;;10.81;86.98
81155;BME280;70631;50.436;7.826;2023-11-19T05:01:34;98622.66;;;10.78;87.21
81155;BME280;70631;50.436;7.826;2023-11-19T05:04:00;98628.97;;;10.77;87.21
81155;BME280;70631;50.436;7.826;2023-11-19T05:06:27;98622.81;;;10.77;86.65
81155;BME280;70631;50.436;7.826;2023-11-19T05:08:54;98626.31;;;10.77;87.17
81155;BME280;70631;50.436;7.826;2023-11-19T05:11:19;98625.31;;;10.78;87.30
81155;BME280;70631;50.436;7.826;2023-11-19T05:13:45;98625.00;;;10.81;87.81
81155;BME280;70631;50.436;7.826;2023-11-19T05:16:11;98622.31;;;10.81;87.43
81155;BME280;70631;50.436;7.826;2023-11-19T05:18:39;98618.00;;;10.80;87.31
81155;BME280;70631;50.436;7.826;2023-11-19T05:21:04;98613.00;;;10.77;87.19
81155;BME280;70631;50.436;7.826;2023-11-19T05:23:30;98620.31;;;10.75;87.65
81155;BME280;70631;50.436;7.826;2023-11-19T05:25:55;98623.28;;;10.72;87.38
81155;BME280;70631;50.436;7.826;2023-11-19T05:28:23;98611.97;;;10.70;87.66
81155;BME280;70631;50.436;7.826;2023-11-19T05:30:49;98616.47;;;10.69;87.65
81155;BME280;70631;50.436;7.826;2023-11-19T05:33:15;98617.44;;;10.68;87.60
81155;BME280;70631;50.436;7.826;2023-11-19T05:35:40;98615.09;;;10.65;87.51
81155;BME280;70631;50.436;7.826;2023-11-19T05:38:05;98630.25;;;10.65;87.60
81155;BME280;70631;50.436;7.826;2023-11-19T05:40:31;98633.59;;;10.67;87.55
81155;BME280;70631;50.436;7.826;2023-11-19T05:42:56;98633.28;;;10.70;87.95
81155;BME280;70631;50.436;7.826;2023-11-19T05:45:21;98624.13;;;10.73;87.56
81155;BME280;70631;50.436;7.826;2023-11-19T05:47:46;98629.97;;;10.76;87.63
81155;BME280;70631;50.436;7.826;2023-11-19T05:50:12;98634.31;;;10.77;87.66
81155;BME280;70631;50.436;7.826;2023-11-19T05:52:37;98628.31;;;10.75;87.71
81155;BME280;70631;50.436;7.826;2023-11-19T05:55:03;98638.31;;;10.81;87.84
81155;BME280;70631;50.436;7.826;2023-11-19T05:57:36;98643.47;;;10.83;87.75
81155;BME280;70631;50.436;7.826;2023-11-19T06:00:02;98641.38;;;10.86;87.67
81155;BME280;70631;50.436;7.826;2023-11-19T06:02:28;98652.69;;;10.88;87.72
81155;BME280;70631;50.436;7.826;2023-11-19T06:04:54;98644.53;;;10.90;87.60
81155;BME280;70631;50.436;7.826;2023-11-19T06:07:19;98651.22;;;10.94;87.94
81155;BME280;70631;50.436;7.826;2023-11-19T06:09:45;98646.41;;;10.97;87.60
81155;BME280;70631;50.436;7.826;2023-11-19T06:12:10;98657.25;;;11.04;87.58
81155;BME280;70631;50.436;7.826;2023-11-19T06:14:35;98642.78;;;11.07;87.87
81155;BME280;70631;50.436;7.826;2023-11-19T06:17:01;98652.47;;;11.08;87.47
81155;BME280;70631;50.436;7.826;2023-11-19T06:19:26;98661.13;;;11.10;87.43
81155;BME280;70631;50.436;7.826;2023-11-19T06:21:52;98660.97;;;11.11;87.38
81155;BME280;70631;50.436;7.826;2023-11-19T06:24:17;98665.63;;;11.09;87.31
81155;BME280;70631;50.436;7.826;2023-11-19T06:26:42;98670.56;;;11.04;87.22
81155;BME280;70631;50.436;7.826;2023-11-19T06:29:08;98666.41;;;11.01;87.01
81155;BME280;70631;50.436;7.826;2023-11-19T06:31:33;98666.88;;;10.97;87.35
81155;BME280;70631;50.436;7.826;2023-11-19T06:33:58;98668.88;;;10.95;87.05
81155;BME280;70631;50.436;7.826;2023-11-19T06:36:24;98666.22;;;10.95;87.25
81155;BME280;70631;50.436;7.826;2023-11-19T06:38:49;98654.41;;;10.97;87.40
81155;BME280;70631;50.436;7.826;2023-11-19T06:41:14;98667.72;;;10.97;87.25
81155;BME280;70631;50.436;7.826;2023-11-19T06:43:40;98655.91;;;11.00;87.05
81155;BME280;70631;50.436;7.826;2023-11-19T06:46:05;98660.72;;;10.96;87.42
81155;BME280;70631;50.436;7.826;2023-11-19T06:48:34;98672.53;;;10.94;87.41
81155;BME280;70631;50.436;7.826;2023-11-19T06:51:00;98671.72;;;10.93;87.29
81155;BME280;70631;50.436;7.826;2023-11-19T06:53:25;98669.72;;;10.95;87.53
81155;BME280;70631;50.436;7.826;2023-11-19T06:55:53;98665.22;;;10.96;87.35
81155;BME280;70631;50.436;7.826;2023-11-19T06:58:18;98674.06;;;10.96;87.25
81155;BME280;70631;50.436;7.826;2023-11-19T07:00:43;98672.38;;;10.95;87.07
81155;BME280;70631;50.436;7.826;2023-11-19T07:03:09;98690.22;;;10.95;86.94
81155;BME280;70631;50.436;7.826;2023-11-19T07:05:38;98687.69;;;10.93;86.68
81155;BME280;70631;50.436;7.826;2023-11-19T07:08:04;98683.72;;;10.97;87.14
81155;BME280;70631;50.436;7.826;2023-11-19T07:10:32;98685.38;;;10.98;86.69
81155;BME280;70631;50.436;7.826;2023-11-19T07:12:57;98685.38;;;10.98;86.59
81155;BME280;70631;50.436;7.826;2023-11-19T07:15:23;98685.38;;;10.98;86.89
81155;BME280;70631;50.436;7.826;2023-11-19T07:17:48;98682.56;;;11.00;86.88
81155;BME280;70631;50.436;7.826;2023-11-19T07:20:13;98678.91;;;11.01;86.63
81155;BME280;70631;50.436;7.826;2023-11-19T07:22:43;98678.22;;;10.99;86.61
81155;BME280;70631;50.436;7.826;2023-11-19T07:25:08;98694.06;;;11.00;86.29
81155;BME280;70631;50.436;7.826;2023-11-19T07:27:34;98702.72;;;11.02;86.25
81155;BME280;70631;50.436;7.826;2023-11-19T07:29:59;98702.56;;;11.04;86.19
81155;BME280;70631;50.436;7.826;2023-11-19T07:32:25;98696.78;;;11.09;86.28
81155;BME280;70631;50.436;7.826;2023-11-19T07:34:50;98705.47;;;11.11;86.16
81155;BME280;70631;50.436;7.826;2023-11-19T07:37:15;98703.47;;;11.13;85.79
81155;BME280;70631;50.436;7.826;2023-11-19T07:39:42;98707.47;;;11.17;85.94
81155;BME280;70631;50.436;7.826;2023-11-19T07:42:07;98710.50;;;11.22;85.63
81155;BME280;70631;50.436;7.826;2023-11-19T07:44:34;98713.06;;;11.31;85.26
81155;BME280;70631;50.436;7.826;2023-11-19T07:46:59;98718.59;;;11.46;84.71
81155;BME280;70631;50.436;7.826;2023-11-19T07:49:25;98721.50;;;11.61;84.56
81155;BME280;70631;50.436;7.826;2023-11-19T07:51:50;98718.38;;;11.74;84.64
81155;BME280;70631;50.436;7.826;2023-11-19T07:54:15;98739.47;;;11.85;83.92
81155;BME280;70631;50.436;7.826;2023-11-19T07:56:41;98732.31;;;11.93;83.59
81155;BME280;70631;50.436;7.826;2023-11-19T07:59:06;98736.84;;;12.01;82.92
81155;BME280;70631;50.436;7.826;2023-11-19T08:01:31;98730.66;;;12.01;82.54
81155;BME280;70631;50.436;7.826;2023-11-19T08:03:57;98726.81;;;11.95;81.79
81155;BME280;70631;50.436;7.826;2023-11-19T08:06:23;98723.09;;;11.88;82.27
81155;BME280;70631;50.436;7.826;2023-11-19T08:08:48;98725.16;;;11.94;81.73
81155;BME280;70631;50.436;7.826;2023-11-19T08:11:13;98733.50;;;11.99;81.45
81155;BME280;70631;50.436;7.826;2023-11-19T08:13:40;98729.50;;;12.03;81.20
81155;BME280;70631;50.436;7.826;2023-11-19T08:16:05;98713.63;;;12.10;80.83
81155;BME280;70631;50.436;7.826;2023-11-19T08:18:31;98715.50;;;12.17;80.20
81155;BME280;70631;50.436;7.826;2023-11-19T08:20:56;98724.50;;;12.24;78.90
81155;BME280;70631;50.436;7.826;2023-11-19T08:23:23;98721.16;;;12.31;77.45
81155;BME280;70631;50.436;7.826;2023-11-19T08:25:50;98728.53;;;12.37;77.51
81155;BME280;70631;50.436;7.826;2023-11-19T08:28:16;98731.53;;;12.42;76.76
81155;BME280;70631;50.436;7.826;2023-11-19T08:30:41;98737.03;;;12.48;76.80
81155;BME280;70631;50.436;7.826;2023-11-19T08:33:06;98729.53;;;12.52;76.17
81155;BME280;70631;50.436;7.826;2023-11-19T08:35:32;98741.25;;;12.59;75.27
81155;BME280;70631;50.436;7.826;2023-11-19T08:37:57;98736.06;;;12.66;74.95
81155;BME280;70631;50.436;7.826;2023-11-19T08:40:24;98739.88;;;12.79;74.01
81155;BME280;70631;50.436;7.826;2023-11-19T08:42:50;98733.44;;;13.37;73.35
81155;BME280;70631;50.436;7.826;2023-11-19T08:45:16;98735.13;;;14.00;72.56
81155;BME280;70631;50.436;7.826;2023-11-19T08:47:41;98741.22;;;13.94;70.81
81155;BME280;70631;50.436;7.826;2023-11-19T08:50:07;98741.69;;;13.98;69.54
81155;BME280;70631;50.436;7.826;2023-11-19T08:52:33;98733.63;;;14.52;69.33
81155;BME280;70631;50.436;7.826;2023-11-19T08:54:58;98747.84;;;14.98;67.92
81155;BME280;70631;50.436;7.826;2023-11-19T08:57:24;98750.56;;;15.42;65.67
81155;BME280;70631;50.436;7.826;2023-11-19T08:59:49;98759.72;;;15.77;63.91
81155;BME280;70631;50.436;7.826;2023-11-19T09:02:14;98760.34;;;16.30;62.22
81155;BME280;70631;50.436;7.826;2023-11-19T09:04:40;98746.53;;;16.76;61.08
81155;BME280;70631;50.436;7.826;2023-11-19T09:07:06;98750.63;;;16.93;59.61
81155;BME280;70631;50.436;7.826;2023-11-19T09:09:32;98742.56;;;16.93;59.18
81155;BME280;70631;50.436;7.826;2023-11-19T09:12:00;98754.69;;;17.45;59.29
81155;BME280;70631;50.436;7.826;2023-11-19T09:14:26;98761.88;;;18.07;57.82
81155;BME280;70631;50.436;7.826;2023-11-19T09:16:52;98756.38;;;18.55;56.04
81155;BME280;70631;50.436;7.826;2023-11-19T09:19:18;98751.06;;;18.88;54.86
81155;BME280;70631;50.436;7.826;2023-11-19T09:21:43;98741.91;;;19.15;53.72
81155;BME280;70631;50.436;7.826;2023-11-19T09:24:08;98749.75;;;19.43;52.35
81155;BME280;70631;50.436;7.826;2023-11-19T09:26:34;98745.19;;;19.57;52.61
81155;BME280;70631;50.436;7.826;2023-11-19T09:29:01;98747.03;;;19.43;50.37
81155;BME280;70631;50.436;7.826;2023-11-19T09:31:26;98756.03;;;19.11;51.74
81155;BME280;70631;50.436;7.826;2023-11-19T09:33:51;98753.94;;;18.86;50.97
81155;BME280;70631;50.436;7.826;2023-11-19T09:36:16;98758.91;;;18.63;50.65
81155;BME280;70631;50.436;7.826;2023-11-19T09:38:43;98770.66;;;18.29;51.83
81155;BME280;70631;50.436;7.826;2023-11-19T09:41:09;98774.94;;;18.04;52.17
81155;BME280;70631;50.436;7.826;2023-11-19T09:43:37;98776.91;;;17.82;52.36
81155;BME280;70631;50.436;7.826;2023-11-19T09:46:05;98766.19;;;17.60;52.80
81155;BME280;70631;50.436;7.826;2023-11-19T09:48:35;98758.03;;;17.47;53.33
81155;BME280;70631;50.436;7.826;2023-11-19T09:51:02;98761.91;;;17.73;53.06
81155;BME280;70631;50.436;7.826;2023-11-19T09:53:29;98760.06;;;18.27;51.84
81155;BME280;70631;50.436;7.826;2023-11-19T09:55:55;98751.47;;;19.11;50.88
81155;BME280;70631;50.436;7.826;2023-11-19T09:58:20;98749.69;;;19.76;49.94
81155;BME280;70631;50.436;7.826;2023-11-19T10:00:47;98757.53;;;19.91;49.58
81155;BME280;70631;50.436;7.826;2023-11-19T10:03:13;98755.44;;;19.93;48.49
81155;BME280;70631;50.436;7.826;2023-11-19T10:05:38;98754.16;;;19.18;48.97
81155;BME280;70631;50.436;7.826;2023-11-19T10:08:05;98754.69;;;18.27;50.52
81155;BME280;70631;50.436;7.826;2023-11-19T10:10:30;98758.50;;;17.57;52.96
81155;BME280;70631;50.436;7.826;2023-11-19T10:12:56;98750.97;;;17.46;53.26
81155;BME280;70631;50.436;7.826;2023-11-19T10:15:23;98757.78;;;17.77;53.72
81155;BME280;70631;50.436;7.826;2023-11-19T10:17:50;98754.69;;;18.27;52.64
81155;BME280;70631;50.436;7.826;2023-11-19T10:20:16;98749.81;;;18.77;51.91
81155;BME280;70631;50.436;7.826;2023-11-19T10:22:41;98754.16;;;19.31;50.52
81155;BME280;70631;50.436;7.826;2023-11-19T10:25:33;98756.16;;;19.69;50.61
81155;BME280;70631;50.436;7.826;2023-11-19T10:27:59;98745.38;;;20.13;49.35
81155;BME280;70631;50.436;7.826;2023-11-19T10:30:30;98750.00;;;20.38;47.77
81155;BME280;70631;50.436;7.826;2023-11-19T10:33:08;98742.91;;;20.50;47.73
81155;BME280;70631;50.436;7.826;2023-11-19T10:35:35;98745.31;;;20.65;45.39
81155;BME280;70631;50.436;7.826;2023-11-19T10:38:13;98726.47;;;20.77;45.70
81155;BME280;70631;50.436;7.826;2023-11-19T10:40:40;98721.25;;;21.00;45.22
81155;BME280;70631;50.436;7.826;2023-11-19T10:43:05;98725.28;;;21.16;44.79
81155;BME280;70631;50.436;7.826;2023-11-19T10:45:31;98729.22;;;21.20;43.90
81155;BME280;70631;50.436;7.826;2023-11-19T10:47:59;98732.44;;;21.35;44.97
81155;BME280;70631;50.436;7.826;2023-11-19T10:50:24;98723.16;;;21.43;43.50
81155;BME280;70631;50.436;7.826;2023-11-19T10:52:54;98723.25;;;21.54;43.03
81155;BME280;70631;50.436;7.826;2023-11-19T10:55:23;98716.78;;;21.55;43.14
81155;BME280;70631;50.436;7.826;2023-11-19T10:57:51;98720.09;;;21.57;42.75
81155;BME280;70631;50.436;7.826;2023-11-19T11:00:19;98722.41;;;21.35;43.06
81155;BME280;70631;50.436;7.826;2023-11-19T11:02:50;98726.13;;;21.16;42.81
81155;BME280;70631;50.436;7.826;2023-11-19T11:05:21;98709.59;;;20.74;43.52
81155;BME280;70631;50.436;7.826;2023-11-19T11:07:48;98714.53;;;20.21;44.54
81155;BME280;70631;50.436;7.826;2023-11-19T11:10:16;98714.03;;;19.35;46.26
81155;BME280;70631;50.436;7.826;2023-11-19T11:12:41;98718.25;;;18.71;47.43
81155;BME280;70631;50.436;7.826;2023-11-19T11:15:07;98719.41;;;18.22;48.64
81155;BME280;70631;50.436;7.826;2023-11-19T11:17:33;98713.47;;;17.86;49.54
81155;BME280;70631;50.436;7.826;2023-11-19T11:19:59;98716.38;;;17.43;50.47
81155;BME280;70631;50.436;7.826;2023-11-19T11:22:24;98714.53;;;17.85;49.91
81155;BME280;70631;50.436;7.826;2023-11-19T11:31:01;98716.25;;;17.64;50.83
81155;BME280;70631;50.436;7.826;2023-11-19T11:33:41;98710.81;;;17.92;50.09
81155;BME280;70631;50.436;7.826;2023-11-19T11:36:20;98720.75;;;18.73;48.79
81155;BME280;70631;50.436;7.826;2023-11-19T11:38:50;98713.03;;;19.03;48.16
81155;BME280;70631;50.436;7.826;2023-11-19T11:41:22;98711.94;;;19.57;47.69
81155;BME280;70631;50.436;7.826;2023-11-19T11:43:48;98720.84;;;20.08;45.65
81155;BME280;70631;50.436;7.826;2023-11-19T11:49:01;98711.44;;;20.18;46.66
81155;BME280;70631;50.436;7.826;2023-11-19T11:52:00;98693.59;;;20.73;46.06
81155;BME280;70631;50.436;7.826;2023-11-19T11:54:29;98700.13;;;20.65;45.63
81155;BME280;70631;50.436;7.826;2023-11-19T12:02:09;98702.97;;;20.07;45.14
81155;BME280;70631;50.436;7.826;2023-11-19T12:04:36;98702.75;;;19.51;46.30
81155;BME280;70631;50.436;7.826;2023-11-19T12:09:31;98691.00;;;18.53;47.34
81155;BME280;70631;50.436;7.826;2023-11-19T12:20:01;98668.72;;;17.98;48.33
81155;BME280;70631;50.436;7.826;2023-11-19T12:22:27;98667.47;;;17.87;49.04
81155;BME280;70631;50.436;7.826;2023-11-19T12:24:54;98661.44;;;17.85;49.41
81155;BME280;70631;50.436;7.826;2023-11-19T12:27:19;98658.09;;;17.77;50.06
81155;BME280;70631;50.436;7.826;2023-11-19T12:29:47;98660.66;;;17.50;51.01
81155;BME280;70631;50.436;7.826;2023-11-19T12:32:12;98666.44;;;17.40;50.38
81155;BME280;70631;50.436;7.826;2023-11-19T12:34:38;98663.03;;;17.25;51.84
81155;BME280;70631;50.436;7.826;2023-11-19T12:37:04;98666.28;;;17.14;52.58
81155;BME280;70631;50.436;7.826;2023-11-19T12:39:30;98655.88;;;17.04;53.14
81155;BME280;70631;50.436;7.826;2023-11-19T12:41:55;98650.41;;;16.91;53.64
81155;BME280;70631;50.436;7.826;2023-11-19T12:44:21;98639.06;;;16.68;53.93
81155;BME280;70631;50.436;7.826;2023-11-19T12:46:59;98641.66;;;16.33;54.03
81155;BME280;70631;50.436;7.826;2023-11-19T12:49:25;98656.44;;;16.23;54.27
81155;BME280;70631;50.436;7.826;2023-11-19T12:51:50;98654.47;;;16.10;54.88
81155;BME280;70631;50.436;7.826;2023-11-19T12:54:15;98654.59;;;16.02;54.52
81155;BME280;70631;50.436;7.826;2023-11-19T12:56:54;98655.75;;;15.93;55.37
81155;BME280;70631;50.436;7.826;2023-11-19T12:59:19;98657.16;;;15.88;56.29
81155;BME280;70631;50.436;7.826;2023-11-19T13:01:57;98645.69;;;15.80;55.33
81155;BME280;70631;50.436;7.826;2023-11-19T13:04:23;98638.06;;;15.62;55.84
81155;BME280;70631;50.436;7.826;2023-11-19T13:06:52;98637.41;;;15.60;55.96
81155;BME280;70631;50.436;7.826;2023-11-19T13:09:27;98633.91;;;15.45;56.70
81155;BME280;70631;50.436;7.826;2023-11-19T13:11:54;98644.72;;;15.37;56.34
81155;BME280;70631;50.436;7.826;2023-11-19T13:14:22;98640.50;;;15.27;57.25
81155;BME280;70631;50.436;7.826;2023-11-19T13:16:48;98640.13;;;15.31;57.32
81155;BME280;70631;50.436;7.826;2023-11-19T13:19:14;98637.81;;;15.42;57.79
81155;BME280;70631;50.436;7.826;2023-11-19T13:21:41;98626.75;;;15.52;57.13